sensor_id;sensor_type;location;lat;lon;timestamp;P1;durP1;ratioP1;P2;durP2;ratioP2
68375;SDS011;55318;52.068;5.188;2022-12-18T00:01:00;42.8;;;18.2;;
68375;SDS011;55318;52.068;5.188;2022-12-18T00:02:36;40.1;;;17.61;;
68375;SDS011;55318;52.068;5.188;2022-12-18T00:04:15;49.3;;;20.8;;
68375;SDS011;55318;52.068;5.188;2022-12-18T00:05:58;40.1;;;18.2;;
68375;SDS011;55318;52.068;5.188;2022-12-18T00:09:12;39.71;;;17.3;;
68375;SDS011;55318;52.068;5.188;2022-12-18T00:10:48;43.9;;;18.0;;
68375;SDS011;55318;52.068;5.188;2022-12-18T00:12:24;44.1;;;19.41;;
68375;SDS011;55318;52.068;5.188;2022-12-18T00:15:37;34.81;;;17.61;;
68375;SDS011;55318;52.068;5.188;2022-12-18T00:17:15;45.2;;;18.11;;
68375;SDS011;55318;52.068;5.188;2022-12-18T00:18:52;35.9;;;17.5;;
68375;SDS011;55318;52.068;5.188;2022-12-18T00:22:12;42.6;;;17.91;;
68375;SDS011;55318;52.068;5.188;2022-12-18T00:23:48;48.4;;;20.3;;
68375;SDS011;55318;52.068;5.188;2022-12-18T00:25:26;40.6;;;17.0;;
68375;SDS011;55318;52.068;5.188;2022-12-18T00:27:03;43.0;;;19.0;;
68375;SDS011;55318;52.068;5.188;2022-12-18T00:30:15;45.0;;;17.8;;
68375;SDS011;55318;52.068;5.188;2022-12-18T00:31:52;38.4;;;17.5;;
68375;SDS011;55318;52.068;5.188;2022-12-18T00:33:28;34.0;;;17.61;;
68375;SDS011;55318;52.068;5.188;2022-12-18T00:35:06;41.5;;;17.7;;
68375;SDS011;55318;52.068;5.188;2022-12-18T00:38:19;40.9;;;16.0;;
68375;SDS011;55318;52.068;5.188;2022-12-18T00:39:55;39.21;;;18.41;;
68375;SDS011;55318;52.068;5.188;2022-12-18T00:41:31;39.81;;;17.5;;
68375;SDS011;55318;52.068;5.188;2022-12-18T00:44:45;46.8;;;18.3;;
68375;SDS011;55318;52.068;5.188;2022-12-18T00:46:21;50.5;;;19.8;;
68375;SDS011;55318;52.068;5.188;2022-12-18T00:47:57;50.5;;;19.8;;
68375;SDS011;55318;52.068;5.188;2022-12-18T00:51:09;44.3;;;18.2;;
68375;SDS011;55318;52.068;5.188;2022-12-18T00:52:45;42.4;;;18.61;;
68375;SDS011;55318;52.068;5.188;2022-12-18T00:54:22;47.8;;;18.2;;
68375;SDS011;55318;52.068;5.188;2022-12-18T00:55:59;50.8;;;19.5;;
68375;SDS011;55318;52.068;5.188;2022-12-18T00:59:11;45.1;;;18.8;;
68375;SDS011;55318;52.068;5.188;2022-12-18T01:00:47;38.5;;;17.41;;
68375;SDS011;55318;52.068;5.188;2022-12-18T01:02:24;43.0;;;18.3;;
68375;SDS011;55318;52.068;5.188;2022-12-18T01:05:38;45.8;;;18.7;;
68375;SDS011;55318;52.068;5.188;2022-12-18T01:07:15;45.8;;;18.7;;
68375;SDS011;55318;52.068;5.188;2022-12-18T01:08:51;41.3;;;19.2;;
68375;SDS011;55318;52.068;5.188;2022-12-18T01:12:04;40.0;;;17.11;;
68375;SDS011;55318;52.068;5.188;2022-12-18T01:13:41;36.9;;;15.9;;
68375;SDS011;55318;52.068;5.188;2022-12-18T01:15:18;43.5;;;17.8;;
68375;SDS011;55318;52.068;5.188;2022-12-18T01:16:55;37.21;;;17.61;;
68375;SDS011;55318;52.068;5.188;2022-12-18T01:20:09;42.5;;;17.5;;
68375;SDS011;55318;52.068;5.188;2022-12-18T01:21:47;34.9;;;15.9;;
68375;SDS011;55318;52.068;5.188;2022-12-18T01:23:23;39.5;;;17.61;;
68375;SDS011;55318;52.068;5.188;2022-12-18T01:26:40;36.0;;;18.2;;
68375;SDS011;55318;52.068;5.188;2022-12-18T01:28:16;41.3;;;18.61;;
68375;SDS011;55318;52.068;5.188;2022-12-18T01:29:53;37.0;;;17.61;;
68375;SDS011;55318;52.068;5.188;2022-12-18T01:33:09;38.5;;;18.91;;
68375;SDS011;55318;52.068;5.188;2022-12-18T01:34:45;47.3;;;18.8;;
68375;SDS011;55318;52.068;5.188;2022-12-18T01:36:22;43.0;;;17.91;;
68375;SDS011;55318;52.068;5.188;2022-12-18T01:38:01;45.7;;;18.41;;
68375;SDS011;55318;52.068;5.188;2022-12-18T01:41:13;43.9;;;18.11;;
68375;SDS011;55318;52.068;5.188;2022-12-18T01:42:55;40.81;;;18.61;;
68375;SDS011;55318;52.068;5.188;2022-12-18T01:45:00;36.81;;;19.2;;
68375;SDS011;55318;52.068;5.188;2022-12-18T01:46:57;37.9;;;17.41;;
68375;SDS011;55318;52.068;5.188;2022-12-18T01:48:33;40.0;;;17.41;;
68375;SDS011;55318;52.068;5.188;2022-12-18T01:51:51;42.3;;;18.5;;
68375;SDS011;55318;52.068;5.188;2022-12-18T01:53:27;39.1;;;15.9;;
68375;SDS011;55318;52.068;5.188;2022-12-18T01:55:04;40.9;;;17.7;;
68375;SDS011;55318;52.068;5.188;2022-12-18T01:56:42;39.71;;;19.11;;
68375;SDS011;55318;52.068;5.188;2022-12-18T02:00:00;39.71;;;18.5;;
68375;SDS011;55318;52.068;5.188;2022-12-18T02:01:43;43.2;;;18.61;;
68375;SDS011;55318;52.068;5.188;2022-12-18T02:03:20;43.7;;;18.7;;
68375;SDS011;55318;52.068;5.188;2022-12-18T02:06:33;36.71;;;17.7;;
68375;SDS011;55318;52.068;5.188;2022-12-18T02:08:16;34.5;;;16.3;;
68375;SDS011;55318;52.068;5.188;2022-12-18T02:10:02;31.2;;;16.9;;
68375;SDS011;55318;52.068;5.188;2022-12-18T02:11:47;32.8;;;15.8;;
68375;SDS011;55318;52.068;5.188;2022-12-18T02:13:32;37.31;;;15.3;;
68375;SDS011;55318;52.068;5.188;2022-12-18T02:17:03;36.21;;;16.5;;
68375;SDS011;55318;52.068;5.188;2022-12-18T02:18:48;34.71;;;15.2;;
68375;SDS011;55318;52.068;5.188;2022-12-18T02:20:31;36.4;;;16.7;;
68375;SDS011;55318;52.068;5.188;2022-12-18T02:22:18;35.1;;;15.5;;
68375;SDS011;55318;52.068;5.188;2022-12-18T02:24:10;34.1;;;14.0;;
68375;SDS011;55318;52.068;5.188;2022-12-18T02:26:04;33.1;;;15.7;;
68375;SDS011;55318;52.068;5.188;2022-12-18T02:29:27;37.1;;;16.3;;
68375;SDS011;55318;52.068;5.188;2022-12-18T02:31:09;34.81;;;16.61;;
68375;SDS011;55318;52.068;5.188;2022-12-18T02:32:52;33.9;;;15.7;;
68375;SDS011;55318;52.068;5.188;2022-12-18T02:34:33;33.1;;;15.6;;
68375;SDS011;55318;52.068;5.188;2022-12-18T02:37:52;27.9;;;15.4;;
68375;SDS011;55318;52.068;5.188;2022-12-18T02:39:29;39.5;;;16.2;;
68375;SDS011;55318;52.068;5.188;2022-12-18T02:41:08;31.6;;;14.6;;
68375;SDS011;55318;52.068;5.188;2022-12-18T02:42:45;35.0;;;14.9;;
68375;SDS011;55318;52.068;5.188;2022-12-18T02:45:58;30.1;;;14.3;;
68375;SDS011;55318;52.068;5.188;2022-12-18T02:47:56;37.1;;;15.8;;
68375;SDS011;55318;52.068;5.188;2022-12-18T02:49:34;34.1;;;14.0;;
68375;SDS011;55318;52.068;5.188;2022-12-18T02:51:21;30.9;;;13.6;;
68375;SDS011;55318;52.068;5.188;2022-12-18T02:54:54;36.1;;;15.3;;
68375;SDS011;55318;52.068;5.188;2022-12-18T02:56:42;35.71;;;14.4;;
68375;SDS011;55318;52.068;5.188;2022-12-18T02:58:26;24.4;;;14.0;;
68375;SDS011;55318;52.068;5.188;2022-12-18T03:00:10;31.0;;;14.7;;
68375;SDS011;55318;52.068;5.188;2022-12-18T03:01:51;33.6;;;14.8;;
68375;SDS011;55318;52.068;5.188;2022-12-18T03:03:35;26.0;;;13.8;;
68375;SDS011;55318;52.068;5.188;2022-12-18T03:06:59;33.9;;;15.4;;
68375;SDS011;55318;52.068;5.188;2022-12-18T03:08:42;29.9;;;13.3;;
68375;SDS011;55318;52.068;5.188;2022-12-18T03:10:25;35.0;;;15.9;;
68375;SDS011;55318;52.068;5.188;2022-12-18T03:12:07;28.4;;;14.1;;
68375;SDS011;55318;52.068;5.188;2022-12-18T03:15:34;29.1;;;13.9;;
68375;SDS011;55318;52.068;5.188;2022-12-18T03:17:14;31.2;;;14.4;;
68375;SDS011;55318;52.068;5.188;2022-12-18T03:18:56;30.9;;;13.4;;
68375;SDS011;55318;52.068;5.188;2022-12-18T03:20:37;29.7;;;14.6;;
68375;SDS011;55318;52.068;5.188;2022-12-18T03:23:59;28.5;;;14.1;;
68375;SDS011;55318;52.068;5.188;2022-12-18T03:25:38;32.4;;;14.5;;
68375;SDS011;55318;52.068;5.188;2022-12-18T03:27:19;33.3;;;16.3;;
68375;SDS011;55318;52.068;5.188;2022-12-18T03:28:59;31.8;;;12.7;;
68375;SDS011;55318;52.068;5.188;2022-12-18T03:32:23;30.3;;;14.1;;
68375;SDS011;55318;52.068;5.188;2022-12-18T03:34:05;32.4;;;14.2;;
68375;SDS011;55318;52.068;5.188;2022-12-18T03:35:48;31.5;;;13.4;;
68375;SDS011;55318;52.068;5.188;2022-12-18T03:37:25;27.9;;;13.6;;
68375;SDS011;55318;52.068;5.188;2022-12-18T03:40:43;28.5;;;12.6;;
68375;SDS011;55318;52.068;5.188;2022-12-18T03:42:37;29.6;;;13.5;;
68375;SDS011;55318;52.068;5.188;2022-12-18T03:44:23;30.7;;;14.5;;
68375;SDS011;55318;52.068;5.188;2022-12-18T03:46:08;31.3;;;14.9;;
68375;SDS011;55318;52.068;5.188;2022-12-18T03:47:53;34.71;;;14.9;;
68375;SDS011;55318;52.068;5.188;2022-12-18T03:49:38;30.5;;;13.1;;
68375;SDS011;55318;52.068;5.188;2022-12-18T03:53:08;29.8;;;14.8;;
68375;SDS011;55318;52.068;5.188;2022-12-18T03:54:54;30.7;;;13.8;;
68375;SDS011;55318;52.068;5.188;2022-12-18T03:56:35;30.7;;;15.0;;
68375;SDS011;55318;52.068;5.188;2022-12-18T03:58:17;30.2;;;14.5;;
68375;SDS011;55318;52.068;5.188;2022-12-18T04:01:38;31.1;;;15.2;;
68375;SDS011;55318;52.068;5.188;2022-12-18T04:03:18;24.9;;;13.4;;
68375;SDS011;55318;52.068;5.188;2022-12-18T04:04:57;39.71;;;14.0;;
68375;SDS011;55318;52.068;5.188;2022-12-18T04:06:38;29.3;;;13.8;;
68375;SDS011;55318;52.068;5.188;2022-12-18T04:09:53;25.7;;;13.1;;
68375;SDS011;55318;52.068;5.188;2022-12-18T04:11:32;24.9;;;14.1;;
68375;SDS011;55318;52.068;5.188;2022-12-18T04:13:08;27.9;;;11.9;;
68375;SDS011;55318;52.068;5.188;2022-12-18T04:14:45;23.6;;;12.8;;
68375;SDS011;55318;52.068;5.188;2022-12-18T04:17:57;30.7;;;14.1;;
68375;SDS011;55318;52.068;5.188;2022-12-18T04:19:33;24.7;;;11.4;;
68375;SDS011;55318;52.068;5.188;2022-12-18T04:21:10;29.0;;;13.9;;
68375;SDS011;55318;52.068;5.188;2022-12-18T04:24:24;29.7;;;14.2;;
68375;SDS011;55318;52.068;5.188;2022-12-18T04:26:00;24.0;;;12.3;;
68375;SDS011;55318;52.068;5.188;2022-12-18T04:27:36;24.7;;;11.8;;
68375;SDS011;55318;52.068;5.188;2022-12-18T04:30:49;23.0;;;11.1;;
68375;SDS011;55318;52.068;5.188;2022-12-18T04:32:24;24.4;;;10.8;;
68375;SDS011;55318;52.068;5.188;2022-12-18T04:34:01;21.4;;;10.5;;
68375;SDS011;55318;52.068;5.188;2022-12-18T04:35:37;18.5;;;10.7;;
68375;SDS011;55318;52.068;5.188;2022-12-18T04:38:49;21.1;;;10.1;;
68375;SDS011;55318;52.068;5.188;2022-12-18T04:40:25;23.5;;;11.9;;
68375;SDS011;55318;52.068;5.188;2022-12-18T04:42:01;21.4;;;11.4;;
68375;SDS011;55318;52.068;5.188;2022-12-18T04:45:14;20.2;;;11.4;;
68375;SDS011;55318;52.068;5.188;2022-12-18T04:46:50;19.41;;;10.3;;
68375;SDS011;55318;52.068;5.188;2022-12-18T04:48:26;18.7;;;10.7;;
68375;SDS011;55318;52.068;5.188;2022-12-18T04:51:40;25.0;;;12.0;;
68375;SDS011;55318;52.068;5.188;2022-12-18T04:53:16;24.5;;;11.1;;
68375;SDS011;55318;52.068;5.188;2022-12-18T04:54:53;22.8;;;10.7;;
68375;SDS011;55318;52.068;5.188;2022-12-18T04:58:07;20.41;;;9.5;;
68375;SDS011;55318;52.068;5.188;2022-12-18T05:01:19;18.5;;;8.9;;
68375;SDS011;55318;52.068;5.188;2022-12-18T05:02:55;22.2;;;9.4;;
68375;SDS011;55318;52.068;5.188;2022-12-18T05:06:08;20.8;;;10.7;;
68375;SDS011;55318;52.068;5.188;2022-12-18T05:07:45;19.91;;;9.21;;
68375;SDS011;55318;52.068;5.188;2022-12-18T05:09:21;16.3;;;8.71;;
68375;SDS011;55318;52.068;5.188;2022-12-18T05:12:37;15.3;;;8.5;;
68375;SDS011;55318;52.068;5.188;2022-12-18T05:14:13;16.61;;;8.6;;
68375;SDS011;55318;52.068;5.188;2022-12-18T05:15:51;16.8;;;9.21;;
68375;SDS011;55318;52.068;5.188;2022-12-18T05:17:28;17.7;;;8.0;;
68375;SDS011;55318;52.068;5.188;2022-12-18T05:20:41;17.3;;;9.31;;
68375;SDS011;55318;52.068;5.188;2022-12-18T05:22:17;14.9;;;8.71;;
68375;SDS011;55318;52.068;5.188;2022-12-18T05:23:53;16.3;;;8.1;;
68375;SDS011;55318;52.068;5.188;2022-12-18T05:27:05;15.5;;;8.6;;
68375;SDS011;55318;52.068;5.188;2022-12-18T05:28:42;15.5;;;7.9;;
68375;SDS011;55318;52.068;5.188;2022-12-18T05:30:18;14.8;;;7.3;;
68375;SDS011;55318;52.068;5.188;2022-12-18T05:33:31;13.7;;;7.5;;
68375;SDS011;55318;52.068;5.188;2022-12-18T05:35:10;14.8;;;7.6;;
68375;SDS011;55318;52.068;5.188;2022-12-18T05:36:48;16.8;;;7.7;;
68375;SDS011;55318;52.068;5.188;2022-12-18T05:38:25;18.11;;;8.31;;
68375;SDS011;55318;52.068;5.188;2022-12-18T05:41:40;13.1;;;7.7;;
68375;SDS011;55318;52.068;5.188;2022-12-18T05:43:16;12.2;;;6.5;;
68375;SDS011;55318;52.068;5.188;2022-12-18T05:44:53;15.5;;;6.9;;
68375;SDS011;55318;52.068;5.188;2022-12-18T05:48:06;18.7;;;8.4;;
68375;SDS011;55318;52.068;5.188;2022-12-18T05:49:43;14.8;;;7.0;;
68375;SDS011;55318;52.068;5.188;2022-12-18T05:51:20;14.2;;;7.1;;
68375;SDS011;55318;52.068;5.188;2022-12-18T05:54:34;14.1;;;7.7;;
68375;SDS011;55318;52.068;5.188;2022-12-18T05:56:10;11.7;;;6.5;;
68375;SDS011;55318;52.068;5.188;2022-12-18T05:57:50;14.9;;;8.0;;
68375;SDS011;55318;52.068;5.188;2022-12-18T05:59:26;13.3;;;6.8;;
68375;SDS011;55318;52.068;5.188;2022-12-18T06:02:46;16.61;;;7.4;;
68375;SDS011;55318;52.068;5.188;2022-12-18T06:04:23;11.5;;;7.6;;
68375;SDS011;55318;52.068;5.188;2022-12-18T06:09:11;15.4;;;8.0;;
68375;SDS011;55318;52.068;5.188;2022-12-18T06:10:50;15.0;;;7.4;;
68375;SDS011;55318;52.068;5.188;2022-12-18T06:12:27;14.2;;;7.6;;
68375;SDS011;55318;52.068;5.188;2022-12-18T06:14:03;11.7;;;7.6;;
68375;SDS011;55318;52.068;5.188;2022-12-18T06:17:17;15.0;;;6.9;;
68375;SDS011;55318;52.068;5.188;2022-12-18T06:18:55;12.2;;;6.7;;
68375;SDS011;55318;52.068;5.188;2022-12-18T06:20:32;12.5;;;7.3;;
68375;SDS011;55318;52.068;5.188;2022-12-18T06:23:44;14.5;;;6.7;;
68375;SDS011;55318;52.068;5.188;2022-12-18T06:25:20;15.3;;;7.2;;
68375;SDS011;55318;52.068;5.188;2022-12-18T06:26:57;13.2;;;7.1;;
68375;SDS011;55318;52.068;5.188;2022-12-18T06:30:09;13.6;;;6.4;;
68375;SDS011;55318;52.068;5.188;2022-12-18T06:31:46;14.6;;;7.8;;
68375;SDS011;55318;52.068;5.188;2022-12-18T06:33:25;12.4;;;6.9;;
68375;SDS011;55318;52.068;5.188;2022-12-18T06:35:03;15.3;;;7.5;;
68375;SDS011;55318;52.068;5.188;2022-12-18T06:38:16;10.9;;;5.7;;
68375;SDS011;55318;52.068;5.188;2022-12-18T06:39:52;16.9;;;7.0;;
68375;SDS011;55318;52.068;5.188;2022-12-18T06:41:28;15.0;;;7.2;;
68375;SDS011;55318;52.068;5.188;2022-12-18T06:44:42;14.7;;;7.0;;
68375;SDS011;55318;52.068;5.188;2022-12-18T06:46:18;10.7;;;6.4;;
68375;SDS011;55318;52.068;5.188;2022-12-18T06:47:55;13.5;;;6.4;;
68375;SDS011;55318;52.068;5.188;2022-12-18T06:49:31;14.8;;;6.3;;
68375;SDS011;55318;52.068;5.188;2022-12-18T06:52:44;13.7;;;6.5;;
68375;SDS011;55318;52.068;5.188;2022-12-18T06:54:20;13.1;;;6.0;;
68375;SDS011;55318;52.068;5.188;2022-12-18T06:55:59;15.1;;;6.2;;
68375;SDS011;55318;52.068;5.188;2022-12-18T06:59:13;15.1;;;6.2;;
68375;SDS011;55318;52.068;5.188;2022-12-18T07:00:50;14.7;;;7.6;;
68375;SDS011;55318;52.068;5.188;2022-12-18T07:02:27;12.8;;;6.8;;
68375;SDS011;55318;52.068;5.188;2022-12-18T07:05:39;12.3;;;6.8;;
68375;SDS011;55318;52.068;5.188;2022-12-18T07:07:16;11.8;;;6.6;;
68375;SDS011;55318;52.068;5.188;2022-12-18T07:08:54;15.9;;;7.2;;
68375;SDS011;55318;52.068;5.188;2022-12-18T07:10:31;13.3;;;7.5;;
68375;SDS011;55318;52.068;5.188;2022-12-18T07:13:43;14.0;;;7.4;;
68375;SDS011;55318;52.068;5.188;2022-12-18T07:15:20;15.2;;;7.4;;
68375;SDS011;55318;52.068;5.188;2022-12-18T07:16:56;15.2;;;7.2;;
68375;SDS011;55318;52.068;5.188;2022-12-18T07:20:09;11.9;;;6.9;;
68375;SDS011;55318;52.068;5.188;2022-12-18T07:21:46;11.9;;;6.9;;
68375;SDS011;55318;52.068;5.188;2022-12-18T07:23:22;14.5;;;6.5;;
68375;SDS011;55318;52.068;5.188;2022-12-18T07:26:34;17.5;;;7.8;;
68375;SDS011;55318;52.068;5.188;2022-12-18T07:28:11;12.0;;;7.3;;
68375;SDS011;55318;52.068;5.188;2022-12-18T07:29:47;13.5;;;6.1;;
68375;SDS011;55318;52.068;5.188;2022-12-18T07:31:23;24.0;;;7.1;;
68375;SDS011;55318;52.068;5.188;2022-12-18T07:34:37;14.3;;;6.5;;
68375;SDS011;55318;52.068;5.188;2022-12-18T07:36:13;12.0;;;5.7;;
68375;SDS011;55318;52.068;5.188;2022-12-18T07:37:50;13.7;;;6.7;;
68375;SDS011;55318;52.068;5.188;2022-12-18T07:41:02;13.4;;;7.2;;
68375;SDS011;55318;52.068;5.188;2022-12-18T07:42:40;13.0;;;6.8;;
68375;SDS011;55318;52.068;5.188;2022-12-18T07:44:17;10.3;;;6.9;;
68375;SDS011;55318;52.068;5.188;2022-12-18T07:47:33;12.9;;;6.7;;
68375;SDS011;55318;52.068;5.188;2022-12-18T07:49:10;13.3;;;6.5;;
68375;SDS011;55318;52.068;5.188;2022-12-18T07:50:46;16.3;;;7.0;;
68375;SDS011;55318;52.068;5.188;2022-12-18T07:52:22;16.61;;;9.1;;
68375;SDS011;55318;52.068;5.188;2022-12-18T07:55:35;27.0;;;12.6;;
68375;SDS011;55318;52.068;5.188;2022-12-18T07:57:11;23.1;;;12.0;;
68375;SDS011;55318;52.068;5.188;2022-12-18T07:58:48;20.6;;;11.2;;
68375;SDS011;55318;52.068;5.188;2022-12-18T08:02:00;19.7;;;10.0;;
68375;SDS011;55318;52.068;5.188;2022-12-18T08:03:37;14.5;;;8.5;;
68375;SDS011;55318;52.068;5.188;2022-12-18T08:05:14;14.3;;;7.4;;
68375;SDS011;55318;52.068;5.188;2022-12-18T08:08:27;11.2;;;6.1;;
68375;SDS011;55318;52.068;5.188;2022-12-18T08:10:04;14.1;;;6.9;;
68375;SDS011;55318;52.068;5.188;2022-12-18T08:11:41;10.1;;;5.9;;
68375;SDS011;55318;52.068;5.188;2022-12-18T08:13:19;13.3;;;6.8;;
68375;SDS011;55318;52.068;5.188;2022-12-18T08:16:31;13.7;;;7.5;;
68375;SDS011;55318;52.068;5.188;2022-12-18T08:18:07;13.3;;;6.6;;
68375;SDS011;55318;52.068;5.188;2022-12-18T08:19:43;9.6;;;6.0;;
68375;SDS011;55318;52.068;5.188;2022-12-18T08:22:58;9.5;;;6.2;;
68375;SDS011;55318;52.068;5.188;2022-12-18T08:24:34;15.5;;;7.2;;
68375;SDS011;55318;52.068;5.188;2022-12-18T08:26:11;12.5;;;6.8;;
68375;SDS011;55318;52.068;5.188;2022-12-18T08:29:24;12.1;;;6.0;;
68375;SDS011;55318;52.068;5.188;2022-12-18T08:31:00;10.1;;;6.7;;
68375;SDS011;55318;52.068;5.188;2022-12-18T08:32:36;11.5;;;6.6;;
68375;SDS011;55318;52.068;5.188;2022-12-18T08:34:11;10.3;;;6.4;;
68375;SDS011;55318;52.068;5.188;2022-12-18T08:37:24;11.2;;;6.8;;
68375;SDS011;55318;52.068;5.188;2022-12-18T08:39:00;14.1;;;7.8;;
68375;SDS011;55318;52.068;5.188;2022-12-18T08:40:36;10.1;;;5.7;;
68375;SDS011;55318;52.068;5.188;2022-12-18T08:43:48;11.1;;;6.1;;
68375;SDS011;55318;52.068;5.188;2022-12-18T08:45:25;13.4;;;7.9;;
68375;SDS011;55318;52.068;5.188;2022-12-18T08:47:01;14.0;;;8.0;;
68375;SDS011;55318;52.068;5.188;2022-12-18T08:50:14;11.5;;;6.6;;
68375;SDS011;55318;52.068;5.188;2022-12-18T08:51:53;11.2;;;6.3;;
68375;SDS011;55318;52.068;5.188;2022-12-18T08:53:30;10.6;;;5.6;;
68375;SDS011;55318;52.068;5.188;2022-12-18T08:55:07;12.4;;;6.7;;
68375;SDS011;55318;52.068;5.188;2022-12-18T08:58:21;12.9;;;6.5;;
68375;SDS011;55318;52.068;5.188;2022-12-18T08:59:57;10.0;;;6.6;;
68375;SDS011;55318;52.068;5.188;2022-12-18T09:01:33;11.1;;;5.9;;
68375;SDS011;55318;52.068;5.188;2022-12-18T09:04:48;10.21;;;5.8;;
68375;SDS011;55318;52.068;5.188;2022-12-18T09:06:24;11.3;;;6.1;;
68375;SDS011;55318;52.068;5.188;2022-12-18T09:08:00;10.7;;;6.5;;
68375;SDS011;55318;52.068;5.188;2022-12-18T09:11:13;13.3;;;6.2;;
68375;SDS011;55318;52.068;5.188;2022-12-18T09:12:54;11.5;;;5.6;;
68375;SDS011;55318;52.068;5.188;2022-12-18T09:14:30;10.0;;;5.11;;
68375;SDS011;55318;52.068;5.188;2022-12-18T09:16:06;9.5;;;6.4;;
68375;SDS011;55318;52.068;5.188;2022-12-18T09:19:19;12.2;;;6.3;;
68375;SDS011;55318;52.068;5.188;2022-12-18T09:20:55;10.6;;;5.5;;
68375;SDS011;55318;52.068;5.188;2022-12-18T09:22:31;13.6;;;6.3;;
68375;SDS011;55318;52.068;5.188;2022-12-18T09:25:48;10.5;;;5.3;;
68375;SDS011;55318;52.068;5.188;2022-12-18T09:27:25;12.1;;;5.5;;
68375;SDS011;55318;52.068;5.188;2022-12-18T09:29:01;9.31;;;5.7;;
68375;SDS011;55318;52.068;5.188;2022-12-18T09:30:38;11.5;;;6.5;;
68375;SDS011;55318;52.068;5.188;2022-12-18T09:33:54;10.5;;;6.1;;
68375;SDS011;55318;52.068;5.188;2022-12-18T09:35:30;13.1;;;6.2;;
68375;SDS011;55318;52.068;5.188;2022-12-18T09:37:07;11.2;;;4.91;;
68375;SDS011;55318;52.068;5.188;2022-12-18T09:40:21;12.0;;;5.6;;
68375;SDS011;55318;52.068;5.188;2022-12-18T09:42:01;14.1;;;6.5;;
68375;SDS011;55318;52.068;5.188;2022-12-18T09:43:40;11.7;;;5.8;;
68375;SDS011;55318;52.068;5.188;2022-12-18T09:45:21;8.9;;;5.6;;
68375;SDS011;55318;52.068;5.188;2022-12-18T09:48:46;9.81;;;5.4;;
68375;SDS011;55318;52.068;5.188;2022-12-18T09:50:27;13.1;;;6.3;;
68375;SDS011;55318;52.068;5.188;2022-12-18T09:52:09;9.4;;;5.3;;
68375;SDS011;55318;52.068;5.188;2022-12-18T09:53:52;9.21;;;4.91;;
68375;SDS011;55318;52.068;5.188;2022-12-18T09:57:14;9.71;;;5.11;;
68375;SDS011;55318;52.068;5.188;2022-12-18T09:58:55;14.7;;;6.6;;
68375;SDS011;55318;52.068;5.188;2022-12-18T10:00:35;10.3;;;6.0;;
68375;SDS011;55318;52.068;5.188;2022-12-18T10:02:13;9.21;;;5.5;;
68375;SDS011;55318;52.068;5.188;2022-12-18T10:05:39;10.1;;;5.3;;
68375;SDS011;55318;52.068;5.188;2022-12-18T10:07:24;9.4;;;5.0;;
68375;SDS011;55318;52.068;5.188;2022-12-18T10:09:11;9.5;;;5.11;;
68375;SDS011;55318;52.068;5.188;2022-12-18T10:10:57;10.5;;;5.8;;
68375;SDS011;55318;52.068;5.188;2022-12-18T10:12:45;8.0;;;4.5;;
68375;SDS011;55318;52.068;5.188;2022-12-18T10:14:34;9.81;;;5.7;;
68375;SDS011;55318;52.068;5.188;2022-12-18T10:18:03;11.9;;;5.6;;
68375;SDS011;55318;52.068;5.188;2022-12-18T10:19:58;10.7;;;5.8;;
68375;SDS011;55318;52.068;5.188;2022-12-18T10:21:39;9.4;;;5.4;;
68375;SDS011;55318;52.068;5.188;2022-12-18T10:23:25;9.9;;;5.2;;
68375;SDS011;55318;52.068;5.188;2022-12-18T10:25:14;11.5;;;5.8;;
68375;SDS011;55318;52.068;5.188;2022-12-18T10:28:45;10.7;;;5.8;;
68375;SDS011;55318;52.068;5.188;2022-12-18T10:30:22;11.0;;;5.8;;
68375;SDS011;55318;52.068;5.188;2022-12-18T10:32:01;8.71;;;5.5;;
68375;SDS011;55318;52.068;5.188;2022-12-18T10:33:37;10.4;;;5.7;;
68375;SDS011;55318;52.068;5.188;2022-12-18T10:36:55;11.2;;;5.4;;
68375;SDS011;55318;52.068;5.188;2022-12-18T10:38:33;10.21;;;5.7;;
68375;SDS011;55318;52.068;5.188;2022-12-18T10:40:10;11.8;;;5.5;;
68375;SDS011;55318;52.068;5.188;2022-12-18T10:43:26;10.21;;;5.2;;
68375;SDS011;55318;52.068;5.188;2022-12-18T10:45:08;10.9;;;5.2;;
68375;SDS011;55318;52.068;5.188;2022-12-18T10:46:50;8.81;;;5.4;;
68375;SDS011;55318;52.068;5.188;2022-12-18T10:48:30;8.81;;;5.11;;
68375;SDS011;55318;52.068;5.188;2022-12-18T10:50:11;11.2;;;5.9;;
68375;SDS011;55318;52.068;5.188;2022-12-18T10:53:44;9.21;;;5.3;;
68375;SDS011;55318;52.068;5.188;2022-12-18T10:55:31;10.7;;;5.7;;
68375;SDS011;55318;52.068;5.188;2022-12-18T10:57:14;10.8;;;6.4;;
68375;SDS011;55318;52.068;5.188;2022-12-18T10:59:08;8.9;;;5.11;;
68375;SDS011;55318;52.068;5.188;2022-12-18T11:00:49;8.0;;;5.0;;
68375;SDS011;55318;52.068;5.188;2022-12-18T11:02:39;9.1;;;5.0;;
68375;SDS011;55318;52.068;5.188;2022-12-18T11:06:01;11.9;;;5.0;;
68375;SDS011;55318;52.068;5.188;2022-12-18T11:07:46;8.9;;;5.6;;
68375;SDS011;55318;52.068;5.188;2022-12-18T11:09:24;10.1;;;4.7;;
68375;SDS011;55318;52.068;5.188;2022-12-18T11:11:02;12.1;;;5.5;;
68375;SDS011;55318;52.068;5.188;2022-12-18T11:14:21;10.1;;;5.7;;
68375;SDS011;55318;52.068;5.188;2022-12-18T11:16:00;12.8;;;5.9;;
68375;SDS011;55318;52.068;5.188;2022-12-18T11:17:36;9.81;;;5.3;;
68375;SDS011;55318;52.068;5.188;2022-12-18T11:21:00;10.5;;;5.11;;
68375;SDS011;55318;52.068;5.188;2022-12-18T11:22:44;12.1;;;5.4;;
68375;SDS011;55318;52.068;5.188;2022-12-18T11:24:32;10.6;;;5.3;;
68375;SDS011;55318;52.068;5.188;2022-12-18T11:26:12;10.8;;;5.7;;
68375;SDS011;55318;52.068;5.188;2022-12-18T11:27:51;10.0;;;4.91;;
68375;SDS011;55318;52.068;5.188;2022-12-18T11:31:17;11.4;;;5.11;;
68375;SDS011;55318;52.068;5.188;2022-12-18T11:33:03;9.0;;;4.7;;
68375;SDS011;55318;52.068;5.188;2022-12-18T11:34:42;11.6;;;5.6;;
68375;SDS011;55318;52.068;5.188;2022-12-18T11:36:23;7.9;;;5.11;;
68375;SDS011;55318;52.068;5.188;2022-12-18T11:39:49;9.5;;;5.4;;
68375;SDS011;55318;52.068;5.188;2022-12-18T11:41:32;12.5;;;5.4;;
68375;SDS011;55318;52.068;5.188;2022-12-18T11:43:17;9.6;;;4.8;;
68375;SDS011;55318;52.068;5.188;2022-12-18T11:45:02;12.0;;;4.5;;
68375;SDS011;55318;52.068;5.188;2022-12-18T11:46:59;7.1;;;4.5;;
68375;SDS011;55318;52.068;5.188;2022-12-18T11:50:23;8.4;;;4.61;;
68375;SDS011;55318;52.068;5.188;2022-12-18T11:52:04;8.2;;;5.0;;
68375;SDS011;55318;52.068;5.188;2022-12-18T11:53:51;11.0;;;5.5;;
68375;SDS011;55318;52.068;5.188;2022-12-18T11:55:30;8.5;;;5.0;;
68375;SDS011;55318;52.068;5.188;2022-12-18T11:57:26;9.31;;;5.11;;
68375;SDS011;55318;52.068;5.188;2022-12-18T11:59:13;11.2;;;5.6;;
68375;SDS011;55318;52.068;5.188;2022-12-18T12:03:03;10.9;;;5.3;;
68375;SDS011;55318;52.068;5.188;2022-12-18T12:06:37;15.3;;;5.11;;
68375;SDS011;55318;52.068;5.188;2022-12-18T12:08:24;10.4;;;5.7;;
68375;SDS011;55318;52.068;5.188;2022-12-18T12:12:10;10.7;;;5.0;;
68375;SDS011;55318;52.068;5.188;2022-12-18T12:14:07;11.4;;;6.6;;
68375;SDS011;55318;52.068;5.188;2022-12-18T12:16:12;11.6;;;5.8;;
68375;SDS011;55318;52.068;5.188;2022-12-18T12:19:44;9.21;;;5.0;;
68375;SDS011;55318;52.068;5.188;2022-12-18T12:21:28;12.1;;;6.0;;
68375;SDS011;55318;52.068;5.188;2022-12-18T12:23:17;9.81;;;5.11;;
68375;SDS011;55318;52.068;5.188;2022-12-18T12:25:07;10.4;;;5.9;;
68375;SDS011;55318;52.068;5.188;2022-12-18T12:27:00;11.1;;;5.5;;
68375;SDS011;55318;52.068;5.188;2022-12-18T12:28:51;9.6;;;4.61;;
68375;SDS011;55318;52.068;5.188;2022-12-18T12:30:43;9.6;;;5.2;;
68375;SDS011;55318;52.068;5.188;2022-12-18T12:34:26;11.1;;;6.0;;
68375;SDS011;55318;52.068;5.188;2022-12-18T12:36:12;11.1;;;5.4;;
68375;SDS011;55318;52.068;5.188;2022-12-18T12:38:02;10.0;;;5.3;;
68375;SDS011;55318;52.068;5.188;2022-12-18T12:39:45;9.31;;;5.3;;
68375;SDS011;55318;52.068;5.188;2022-12-18T12:41:23;8.2;;;5.11;;
68375;SDS011;55318;52.068;5.188;2022-12-18T12:43:04;11.2;;;4.7;;
68375;SDS011;55318;52.068;5.188;2022-12-18T12:46:41;10.4;;;6.3;;
68375;SDS011;55318;52.068;5.188;2022-12-18T12:48:28;10.3;;;4.8;;